Time,TemperatureF,DewpointF,PressureIn,WindDirection,WindDirectionDegrees,WindSpeedMPH,WindSpeedGustMPH,Humidity,HourlyPrecipIn,Conditions,Clouds,dailyrainin,SoftwareType,DateUTC
2014-12-20 00:22:00,40.0,31.0,30.35,NE,45,7.0,10.0,71,0.00,,,0.00,,2014-12-20 05:22:00,
2014-12-20 00:43:00,40.0,31.0,30.35,NE,48,7.0,9.0,70,0.00,,,0.00,,2014-12-20 05:43:00,
2014-12-20 00:53:00,40.0,31.0,30.35,NE,44,7.0,8.0,70,0.00,,,0.00,,2014-12-20 05:53:00,
2014-12-20 01:22:00,40.0,31.0,30.35,NNE,29,4.0,8.0,71,0.00,,,0.00,,2014-12-20 06:22:00,
2014-12-20 01:43:00,40.0,32.0,30.34,North,356,6.0,7.0,72,0.00,,,0.00,,2014-12-20 06:43:00,
2014-12-20 01:52:00,39.0,31.0,30.34,North,355,5.0,5.0,72,0.00,,,0.00,,2014-12-20 06:52:00,
2014-12-20 02:22:00,39.0,30.0,30.35,NNE,30,7.0,7.0,71,0.00,,,0.00,,2014-12-20 07:22:00,
2014-12-20 02:42:00,39.0,30.0,30.34,NE,34,7.0,8.0,70,0.00,,,0.00,,2014-12-20 07:42:00,
2014-12-20 02:52:00,39.0,30.0,30.34,NNE,13,5.0,10.0,69,0.00,,,0.00,,2014-12-20 07:52:00,
2014-12-20 03:12:00,39.0,30.0,30.34,North,1,6.0,8.0,71,0.00,,,0.00,,2014-12-20 08:12:00,
2014-12-20 03:22:00,39.0,30.0,30.34,NNE,16,6.0,10.0,71,0.00,,,0.00,,2014-12-20 08:22:00,
2014-12-20 03:43:00,39.0,30.0,30.35,NNE,14,6.0,10.0,71,0.00,,,0.00,,2014-12-20 08:43:00,
2014-12-20 03:52:00,39.0,30.0,30.34,NNE,33,5.0,13.0,71,0.00,,,0.00,,2014-12-20 08:52:00,
2014-12-20 04:12:00,39.0,31.0,30.34,NNE,28,9.0,12.0,72,0.00,,,0.00,,2014-12-20 09:12:00,
2014-12-20 04:22:00,38.0,30.0,30.35,NE,38,7.0,12.0,74,0.00,,,0.00,,2014-12-20 09:22:00,
2014-12-20 04:54:00,37.0,31.0,30.34,NNE,30,4.0,9.0,78,0.00,,,0.00,,2014-12-20 09:54:00,
2014-12-20 05:13:00,37.0,31.0,30.35,NE,36,4.0,10.0,79,0.00,,,0.00,,2014-12-20 10:13:00,
2014-12-20 05:23:00,37.0,32.0,30.34,NNE,29,5.0,7.0,81,0.00,,,0.00,,2014-12-20 10:23:00,
2014-12-20 05:43:00,36.0,31.0,30.34,NNW,341,5.0,6.0,81,0.00,,,0.00,,2014-12-20 10:43:00,
2014-12-20 05:53:00,36.0,31.0,30.35,NW,310,3.0,6.0,82,0.00,,,0.00,,2014-12-20 10:53:00,
2014-12-20 06:12:00,35.0,30.0,30.34,WNW,300,4.0,5.0,83,0.00,,,0.00,,2014-12-20 11:12:00,
2014-12-20 06:22:00,35.0,31.0,30.35,WNW,292,3.0,4.0,86,0.00,,,0.00,,2014-12-20 11:22:00,
2014-12-20 06:42:00,35.0,31.0,30.34,NW,317,3.0,4.0,86,0.00,,,0.00,,2014-12-20 11:42:00,
2014-12-20 06:53:00,35.0,32.0,30.34,NW,326,4.0,8.0,88,0.00,,,0.00,,2014-12-20 11:53:00,
2014-12-20 07:13:00,35.0,32.0,30.37,North,355,3.0,4.0,88,0.00,,,0.00,,2014-12-20 12:13:00,
2014-12-20 07:22:00,36.0,33.0,30.37,NNW,347,4.0,7.0,89,0.00,,,0.00,,2014-12-20 12:22:00,
2014-12-20 07:52:00,36.0,34.0,30.36,NNE,21,4.0,6.0,91,0.00,,,0.00,,2014-12-20 12:52:00,
2014-12-20 08:12:00,36.0,34.0,30.36,NNW,346,5.0,7.0,91,0.00,,,0.00,,2014-12-20 13:12:00,
2014-12-20 08:22:00,36.0,34.0,30.36,NNW,347,5.0,5.0,92,0.00,,,0.00,,2014-12-20 13:22:00,
2014-12-20 08:42:00,37.0,35.0,30.36,North,358,6.0,6.0,92,0.00,,,0.00,,2014-12-20 13:42:00,
2014-12-20 08:52:00,36.0,34.0,30.37,NNW,333,7.0,7.0,94,0.01,,,0.01,,2014-12-20 13:52:00,
2014-12-20 09:12:00,35.0,33.0,30.37,NW,321,5.0,6.0,94,0.01,,,0.01,,2014-12-20 14:12:00,
2014-12-20 09:22:00,33.0,31.0,30.37,NW,321,6.0,7.0,93,0.01,,,0.01,,2014-12-20 14:22:00,
2014-12-20 09:42:00,33.0,32.0,30.38,NW,320,6.0,8.0,95,0.01,,,0.01,,2014-12-20 14:42:00,
2014-12-20 09:52:00,32.0,31.0,30.38,NW,306,10.0,10.0,96,0.00,,,0.01,,2014-12-20 14:52:00,
2014-12-20 10:12:00,31.0,30.0,30.39,WNW,302,6.0,8.0,96,0.00,,,0.01,,2014-12-20 15:12:00,
2014-12-20 10:22:00,32.0,31.0,30.39,NNW,342,5.0,7.0,97,0.00,,,0.01,,2014-12-20 15:22:00,
2014-12-20 10:51:00,-999.0,-99.9,30.40,NW,308,4.0,11.0,98,0.01,,,0.02,,2014-12-20 15:51:00,
2014-12-20 11:00:00,34.0,-99.9,30.40,NNW,344,4.0,8.0,98,0.01,,,0.02,,2014-12-20 16:00:00,
2014-12-20 11:10:00,-999.0,-99.9,30.40,NNE,31,8.0,10.0,98,0.02,,,0.03,,2014-12-20 16:10:00,
2014-12-20 11:20:00,35.0,34.0,30.40,NNE,31,8.0,10.0,98,0.02,,,0.03,,2014-12-20 16:20:00,
2014-12-20 11:31:00,-999.0,-99.9,30.40,NNE,20,4.0,12.0,98,0.02,,,0.03,,2014-12-20 16:31:00,
2014-12-20 11:51:00,-999.0,-99.9,30.39,North,3,4.0,10.0,98,0.01,,,0.03,,2014-12-20 16:51:00,